createdAt,value
2023-03-12T00:01:21.958Z,85.80
2023-03-12T00:03:51.343Z,86.00
2023-03-12T00:06:21.006Z,85.90
2023-03-12T00:08:56.378Z,85.62
2023-03-12T00:11:25.617Z,85.42
2023-03-12T00:13:55.770Z,85.53
2023-03-12T00:16:24.325Z,85.21
2023-03-12T00:18:53.676Z,85.07
2023-03-12T00:21:22.654Z,85.30
2023-03-12T00:23:54.615Z,85.17
2023-03-12T00:26:23.002Z,85.38
2023-03-12T00:28:51.584Z,84.89
2023-03-12T00:31:24.412Z,85.05
2023-03-12T00:33:54.555Z,85.23
2023-03-12T00:36:25.027Z,85.27
2023-03-12T00:38:54.927Z,84.49
2023-03-12T00:41:23.660Z,83.76
2023-03-12T00:43:52.103Z,83.68
2023-03-12T00:46:20.645Z,83.73
2023-03-12T00:48:49.160Z,83.81
2023-03-12T00:51:17.646Z,83.97
2023-03-12T00:53:46.332Z,83.88
2023-03-12T00:56:15.018Z,82.61
2023-03-12T00:58:43.502Z,80.72
2023-03-12T01:01:12.046Z,79.10
2023-03-12T01:03:40.803Z,79.11
2023-03-12T01:06:09.613Z,79.60
2023-03-12T01:08:38.869Z,79.97
2023-03-12T01:11:08.069Z,80.34
2023-03-12T01:13:36.553Z,80.14
2023-03-12T01:16:05.664Z,79.38
2023-03-12T01:18:34.442Z,79.60
2023-03-12T01:21:03.436Z,79.64
2023-03-12T01:23:31.917Z,80.07
2023-03-12T01:26:00.813Z,80.47
2023-03-12T01:28:29.500Z,80.80
2023-03-12T01:30:57.882Z,81.09
2023-03-12T01:33:27.098Z,81.48
2023-03-12T01:35:55.553Z,81.76
2023-03-12T01:38:24.053Z,82.31
2023-03-12T01:40:56.416Z,82.21
2023-03-12T01:43:25.309Z,82.54
2023-03-12T01:46:19.288Z,82.97
2023-03-12T01:48:50.335Z,83.25
2023-03-12T01:51:18.711Z,83.49
2023-03-12T01:53:48.732Z,84.09
2023-03-12T01:56:17.672Z,84.13
2023-03-12T01:58:49.894Z,84.19
2023-03-12T02:01:18.844Z,84.67
2023-03-12T02:03:49.113Z,84.75
2023-03-12T02:06:18.005Z,85.08
2023-03-12T02:08:46.799Z,85.14
2023-03-12T02:11:17.656Z,85.53
2023-03-12T02:13:46.529Z,85.78
2023-03-12T02:16:16.916Z,85.76
2023-03-12T02:18:46.360Z,85.68
2023-03-12T02:21:20.990Z,85.82
2023-03-12T02:24:14.062Z,86.13
2023-03-12T02:26:43.659Z,85.90
2023-03-12T02:29:12.158Z,85.62
2023-03-12T02:31:44.729Z,85.85
2023-03-12T02:34:14.230Z,85.76
2023-03-12T02:36:45.992Z,85.11
2023-03-12T02:39:15.392Z,84.51
2023-03-12T02:41:50.633Z,84.13
2023-03-12T02:44:22.819Z,83.82
2023-03-12T02:46:56.019Z,83.76
2023-03-12T02:49:27.665Z,83.67
2023-03-12T02:51:56.443Z,83.69
2023-03-12T02:54:27.588Z,83.93
2023-03-12T02:56:57.309Z,84.20
2023-03-12T02:59:27.009Z,83.88
2023-03-12T03:01:58.695Z,83.75
2023-03-12T03:04:29.227Z,83.78
2023-03-12T03:06:57.606Z,84.14
2023-03-12T03:09:26.281Z,83.59
2023-03-12T03:11:57.224Z,83.15
2023-03-12T03:14:33.710Z,83.49
2023-03-12T03:17:02.166Z,83.45
2023-03-12T03:19:31.194Z,83.26
2023-03-12T03:22:04.857Z,83.13
2023-03-12T03:24:36.468Z,83.27
2023-03-12T03:27:04.998Z,83.50
2023-03-12T03:29:34.707Z,83.26
2023-03-12T03:32:04.418Z,83.29
2023-03-12T03:34:32.896Z,83.67
2023-03-12T03:37:01.387Z,83.69
2023-03-12T03:39:30.679Z,84.06
2023-03-12T03:42:00.287Z,83.91
2023-03-12T03:44:30.720Z,83.81
2023-03-12T03:47:02.891Z,84.03
2023-03-12T03:49:32.289Z,83.39
2023-03-12T03:52:00.875Z,83.61
2023-03-12T03:54:34.783Z,84.07
2023-03-12T03:57:03.980Z,84.02
2023-03-12T03:59:37.174Z,84.11
2023-03-12T04:02:05.961Z,84.19
2023-03-12T04:04:36.490Z,84.06
2023-03-12T04:07:04.873Z,84.35
2023-03-12T04:09:34.684Z,84.26
2023-03-12T04:12:05.929Z,83.97
2023-03-12T04:14:35.232Z,84.07
2023-03-12T04:17:04.943Z,84.46
2023-03-12T04:19:33.470Z,84.98
2023-03-12T04:22:02.212Z,84.42
2023-03-12T04:24:31.410Z,84.27
2023-03-12T04:26:59.745Z,84.20
2023-03-12T04:29:28.680Z,83.78
2023-03-12T04:31:58.106Z,83.81
2023-03-12T04:34:26.461Z,83.76
2023-03-12T04:36:56.888Z,83.50
2023-03-12T04:39:26.599Z,83.80
2023-03-12T04:41:55.191Z,84.12
2023-03-12T04:44:24.077Z,83.88
2023-03-12T04:46:55.460Z,83.95
2023-03-12T04:49:25.039Z,83.91
2023-03-12T04:51:53.517Z,83.90
2023-03-12T04:54:22.621Z,84.34
2023-03-12T04:56:51.412Z,84.27
2023-03-12T04:59:26.846Z,84.25
2023-03-12T05:01:55.845Z,84.44
2023-03-12T05:04:27.199Z,84.03
2023-03-12T05:06:56.187Z,83.81
2023-03-12T05:09:24.773Z,83.81
2023-03-12T05:11:53.152Z,83.91
2023-03-12T05:14:23.898Z,83.84
2023-03-12T05:16:52.568Z,83.93
2023-03-12T05:19:22.383Z,83.69
2023-03-12T05:21:51.478Z,83.25
2023-03-12T05:24:22.311Z,83.04
2023-03-12T05:26:51.412Z,83.00
2023-03-12T05:29:22.864Z,83.06
2023-03-12T05:31:54.777Z,82.99
2023-03-12T05:34:23.202Z,82.80
2023-03-12T05:36:51.723Z,82.92
2023-03-12T05:39:23.441Z,82.91
2023-03-12T05:41:56.944Z,82.98
2023-03-12T05:44:27.679Z,82.55
2023-03-12T05:46:59.154Z,83.06
2023-03-12T05:49:30.787Z,83.02
2023-03-12T05:51:59.777Z,83.16
2023-03-12T05:54:29.521Z,83.05
2023-03-12T05:56:58.475Z,82.89
2023-03-12T05:59:28.100Z,83.15
2023-03-12T06:01:58.256Z,83.27
2023-03-12T06:04:27.002Z,83.19
2023-03-12T06:06:55.473Z,83.24
2023-03-12T06:09:24.280Z,83.30
2023-03-12T06:11:53.764Z,83.72
2023-03-12T06:14:22.266Z,83.38
2023-03-12T06:16:51.839Z,83.08
2023-03-12T06:19:20.354Z,82.92
2023-03-12T06:21:56.616Z,82.40
2023-03-12T06:24:25.696Z,82.83
2023-03-12T06:27:02.579Z,82.29
2023-03-12T06:29:31.981Z,82.49
2023-03-12T06:32:00.694Z,82.33
2023-03-12T06:34:34.782Z,82.22
2023-03-12T06:37:04.286Z,81.92
2023-03-12T06:39:32.670Z,81.82
2023-03-12T06:42:01.477Z,82.06
2023-03-12T06:44:30.264Z,81.91
2023-03-12T06:46:58.728Z,81.80
2023-03-12T06:49:32.336Z,81.48
2023-03-12T06:52:00.649Z,81.56
2023-03-12T06:54:31.759Z,81.45
2023-03-12T06:57:00.363Z,81.32
2023-03-12T06:59:29.740Z,81.07
2023-03-12T07:01:58.424Z,81.23
2023-03-12T07:04:27.426Z,81.61
2023-03-12T07:06:55.908Z,81.57
2023-03-12T07:09:28.694Z,80.59
2023-03-12T07:11:59.119Z,80.36
2023-03-12T07:14:27.499Z,80.75
2023-03-12T07:16:57.019Z,80.50
2023-03-12T07:19:25.594Z,79.45
2023-03-12T07:21:53.979Z,78.94
2023-03-12T07:24:23.276Z,77.83
2023-03-12T07:26:51.761Z,77.39
2023-03-12T07:29:20.340Z,75.94
2023-03-12T07:31:48.929Z,74.52
2023-03-12T07:34:17.530Z,73.11
2023-03-12T07:36:50.896Z,72.15
2023-03-12T07:39:19.694Z,72.01
2023-03-12T07:41:47.980Z,71.78
2023-03-12T07:47:20.676Z,69.65
2023-03-12T07:49:52.083Z,69.25
2023-03-12T07:52:20.691Z,69.48
2023-03-12T07:54:52.964Z,67.68
2023-03-12T07:57:22.679Z,66.82
2023-03-12T07:59:51.201Z,66.89
2023-03-12T08:02:20.779Z,66.82
2023-03-12T08:04:49.509Z,66.14
2023-03-12T08:07:18.244Z,65.91
2023-03-12T08:09:49.664Z,65.68
2023-03-12T08:12:22.861Z,66.52
2023-03-12T08:14:51.413Z,66.94
2023-03-12T08:17:20.605Z,65.22
2023-03-12T08:19:49.167Z,64.93
2023-03-12T08:22:18.262Z,64.56
2023-03-12T08:24:47.651Z,65.03
2023-03-12T08:27:17.817Z,65.27
2023-03-12T08:29:46.374Z,64.24
2023-03-12T08:32:16.569Z,64.76
2023-03-12T08:34:46.922Z,64.11
2023-03-12T08:37:15.400Z,64.08
2023-03-12T08:39:44.404Z,64.15
2023-03-12T08:42:13.391Z,63.86
2023-03-12T08:44:43.202Z,63.06
2023-03-12T08:47:12.301Z,63.04
2023-03-12T08:49:40.579Z,63.08
2023-03-12T08:52:09.271Z,62.46
2023-03-12T08:54:37.749Z,63.06
2023-03-12T08:57:06.543Z,63.29
2023-03-12T08:59:36.661Z,61.34
2023-03-12T09:02:07.396Z,60.38
2023-03-12T09:04:38.156Z,60.16
2023-03-12T09:07:06.718Z,60.55
2023-03-12T09:09:36.125Z,60.54
2023-03-12T09:12:05.625Z,60.34
2023-03-12T09:17:29.625Z,59.20
2023-03-12T09:19:58.017Z,59.48
2023-03-12T09:22:26.383Z,58.81
2023-03-12T09:24:55.170Z,58.72
2023-03-12T09:27:23.651Z,58.95
2023-03-12T09:30:00.318Z,59.17
2023-03-12T09:32:29.857Z,58.28
2023-03-12T09:35:05.507Z,58.24
2023-03-12T09:37:34.576Z,59.11
2023-03-12T09:40:06.029Z,58.69
2023-03-12T09:43:02.164Z,59.25
2023-03-12T09:45:37.879Z,59.03
2023-03-12T09:48:08.231Z,59.05
2023-03-12T09:50:43.830Z,58.96
2023-03-12T09:53:52.000Z,59.85
2023-03-12T09:56:21.402Z,60.21
2023-03-12T09:58:51.833Z,59.49
2023-03-12T10:01:33.728Z,59.33
2023-03-12T10:04:26.222Z,59.70
2023-03-12T10:07:15.954Z,59.55
2023-03-12T10:10:11.162Z,59.43
2023-03-12T10:13:18.770Z,59.13
2023-03-12T10:16:06.053Z,59.22
2023-03-12T10:18:48.351Z,59.23
2023-03-12T10:21:22.937Z,59.07
2023-03-12T10:24:19.149Z,59.05
2023-03-12T10:26:50.432Z,59.18
2023-03-12T10:29:34.953Z,59.41
2023-03-12T10:32:12.448Z,59.22
2023-03-12T10:34:49.125Z,59.33
2023-03-12T10:37:36.480Z,57.12
2023-03-12T10:40:06.262Z,55.47
2023-03-12T10:42:34.634Z,55.00
2023-03-12T10:45:06.290Z,54.59
2023-03-12T10:47:36.721Z,54.25
2023-03-12T10:50:25.281Z,54.79
2023-03-12T10:53:12.678Z,55.16
2023-03-12T10:55:41.382Z,54.45
2023-03-12T10:58:22.721Z,54.48
2023-03-12T11:00:58.384Z,53.16
2023-03-12T11:03:27.621Z,52.42
2023-03-12T11:06:02.719Z,52.48
2023-03-12T11:08:35.335Z,51.53
2023-03-12T11:11:05.288Z,51.25
2023-03-12T11:13:41.920Z,51.81
2023-03-12T11:16:16.819Z,51.59
2023-03-12T11:19:02.246Z,50.60
2023-03-12T11:21:38.400Z,51.36
2023-03-12T11:24:14.244Z,51.12
2023-03-12T11:26:42.835Z,51.27
2023-03-12T11:29:18.520Z,51.72
2023-03-12T11:32:15.908Z,51.15
2023-03-12T11:34:49.762Z,52.16
2023-03-12T11:37:49.050Z,52.29
2023-03-12T11:40:42.518Z,52.48
2023-03-12T11:43:16.120Z,52.75
2023-03-12T11:46:01.092Z,53.66
2023-03-12T11:48:52.249Z,53.21
2023-03-12T11:51:32.767Z,53.72
2023-03-12T11:54:19.985Z,53.28
2023-03-12T11:56:59.425Z,53.51
2023-03-12T11:59:31.614Z,54.60
2023-03-12T12:02:00.244Z,54.52
2023-03-12T12:04:41.880Z,54.75
2023-03-12T12:07:19.468Z,55.21
2023-03-12T12:09:53.849Z,56.08
2023-03-12T12:12:44.282Z,56.52
2023-03-12T12:15:18.496Z,58.03
2023-03-12T12:18:06.025Z,58.86
2023-03-12T12:20:59.286Z,58.87
2023-03-12T12:23:52.752Z,60.15
2023-03-12T12:26:50.317Z,59.95
2023-03-12T12:29:32.368Z,60.01
2023-03-12T12:32:02.396Z,59.77
2023-03-12T12:34:54.880Z,59.42
2023-03-12T12:37:49.064Z,59.05
2023-03-12T12:40:23.618Z,60.01
2023-03-12T12:43:30.468Z,59.88
2023-03-12T12:46:02.684Z,60.70
2023-03-12T12:48:59.687Z,60.57
2023-03-12T12:51:31.098Z,61.49
2023-03-12T12:54:05.736Z,62.26
2023-03-12T12:56:47.658Z,62.70
2023-03-12T12:59:23.419Z,62.53
2023-03-12T13:01:52.942Z,63.28
2023-03-12T13:04:38.198Z,63.00
2023-03-12T13:07:12.926Z,62.37
2023-03-12T13:09:43.888Z,62.62
2023-03-12T13:12:30.785Z,62.51
2023-03-12T13:15:00.281Z,62.65
2023-03-12T13:17:34.560Z,62.72
2023-03-12T13:20:21.102Z,63.08
2023-03-12T13:22:58.608Z,63.04
2023-03-12T13:25:36.197Z,63.22
2023-03-12T13:28:26.896Z,63.56
2023-03-12T13:30:55.321Z,63.47
2023-03-12T13:33:45.516Z,62.90
2023-03-12T13:36:16.782Z,61.76
2023-03-12T13:39:07.106Z,59.84
2023-03-12T13:41:36.419Z,58.39
2023-03-12T13:44:23.319Z,56.74
2023-03-12T13:47:03.128Z,55.49
2023-03-12T13:50:13.476Z,55.81
2023-03-12T13:52:47.268Z,56.88
2023-03-12T13:55:27.189Z,59.42
2023-03-12T13:57:55.769Z,62.01
2023-03-12T14:00:41.758Z,64.04
2023-03-12T14:03:40.860Z,64.95
2023-03-12T14:06:13.354Z,65.65
2023-03-12T14:09:08.551Z,66.52
2023-03-12T14:11:52.489Z,68.30
2023-03-12T14:14:41.638Z,70.27
2023-03-12T14:17:27.657Z,71.26
2023-03-12T14:20:01.572Z,71.10
2023-03-12T14:22:32.191Z,70.54
2023-03-12T14:25:37.457Z,69.42
2023-03-12T14:28:22.618Z,67.99
2023-03-12T14:31:02.327Z,65.22
2023-03-12T14:33:55.105Z,64.34
2023-03-12T14:36:26.348Z,63.76
2023-03-12T14:39:01.323Z,61.75
2023-03-12T14:41:31.814Z,58.57
2023-03-12T14:44:19.136Z,56.65
2023-03-12T14:46:56.048Z,55.70
2023-03-12T14:49:24.595Z,56.07
2023-03-12T14:51:52.976Z,54.50
2023-03-12T14:54:24.338Z,53.79
2023-03-12T14:56:54.775Z,51.05
2023-03-12T14:59:31.598Z,51.17
2023-03-12T15:02:14.468Z,50.94
2023-03-12T15:04:43.973Z,52.20
2023-03-12T15:07:18.820Z,53.77
2023-03-12T15:09:50.509Z,54.86
2023-03-12T15:12:34.277Z,55.19
2023-03-12T15:15:08.161Z,55.32
2023-03-12T15:17:37.692Z,55.31
2023-03-12T15:20:09.866Z,54.91
2023-03-12T15:22:38.354Z,53.45
2023-03-12T15:25:41.434Z,52.58
2023-03-12T15:28:15.854Z,51.03
2023-03-12T15:30:44.880Z,51.02
2023-03-12T15:33:18.048Z,50.85
2023-03-12T15:36:17.406Z,51.51
2023-03-12T15:38:51.053Z,52.70
2023-03-12T15:41:27.028Z,54.12
2023-03-12T15:43:56.736Z,54.92
2023-03-12T15:46:25.592Z,55.24
2023-03-12T15:48:55.959Z,56.17
2023-03-12T15:51:31.991Z,56.67
2023-03-12T15:54:29.862Z,57.23
2023-03-12T15:57:20.257Z,57.99
2023-03-12T16:00:16.183Z,59.30
2023-03-12T16:03:06.276Z,60.07
2023-03-12T16:05:35.477Z,60.95
2023-03-12T16:08:15.791Z,61.27
2023-03-12T16:10:44.525Z,62.05
2023-03-12T16:13:17.411Z,63.81
2023-03-12T16:15:47.939Z,68.96
2023-03-12T16:18:20.043Z,69.80
2023-03-12T16:20:49.001Z,70.52
2023-03-12T16:23:17.887Z,70.53
2023-03-12T16:25:51.798Z,70.32
2023-03-12T16:28:20.726Z,69.98
2023-03-12T16:30:50.005Z,70.41
2023-03-12T16:33:20.415Z,70.69
2023-03-12T16:35:49.878Z,71.22
2023-03-12T16:38:18.198Z,71.55
2023-03-12T16:40:54.568Z,71.64
2023-03-12T16:43:24.683Z,72.04
2023-03-12T16:45:53.115Z,72.14
2023-03-12T16:48:24.531Z,72.17
2023-03-12T16:50:55.710Z,72.50
2023-03-12T16:53:27.420Z,72.59
2023-03-12T16:56:00.917Z,72.47
2023-03-12T16:58:31.546Z,72.80
2023-03-12T17:01:01.188Z,72.83
2023-03-12T17:03:38.364Z,72.78
2023-03-12T17:06:08.369Z,72.75
2023-03-12T17:08:37.250Z,73.06
2023-03-12T17:11:19.661Z,73.20
2023-03-12T17:13:50.807Z,73.23
2023-03-12T17:16:21.304Z,73.18
2023-03-12T17:18:57.025Z,73.32
2023-03-12T17:21:26.080Z,73.43
2023-03-12T17:23:56.753Z,73.71
2023-03-12T17:26:25.198Z,73.73
2023-03-12T17:28:53.889Z,73.96
2023-03-12T17:31:25.020Z,74.19
2023-03-12T17:33:54.029Z,74.25
2023-03-12T17:36:24.250Z,74.50
2023-03-12T17:38:52.731Z,74.53
2023-03-12T17:41:26.394Z,74.86
2023-03-12T17:44:01.776Z,74.82
2023-03-12T17:46:31.237Z,74.81
2023-03-12T17:49:02.572Z,74.96
2023-03-12T17:51:31.118Z,75.04
2023-03-12T17:53:59.583Z,74.95
2023-03-12T17:56:28.290Z,74.83
2023-03-12T17:58:56.692Z,74.71
2023-03-12T18:01:25.663Z,74.35
2023-03-12T18:03:54.559Z,73.89
2023-03-12T18:06:26.010Z,73.58
2023-03-12T18:08:56.438Z,73.55
2023-03-12T18:11:25.121Z,73.13
2023-03-12T18:13:54.627Z,72.53
2023-03-12T18:16:24.112Z,71.58
2023-03-12T18:18:53.129Z,71.00
2023-03-12T18:21:22.535Z,70.71
2023-03-12T18:23:52.401Z,70.66
2023-03-12T18:26:21.570Z,70.42
2023-03-12T18:28:50.439Z,70.11
2023-03-12T18:31:18.878Z,70.05
2023-03-12T18:33:51.915Z,70.18
2023-03-12T18:36:20.603Z,70.24
2023-03-12T18:38:53.390Z,70.59
2023-03-12T18:41:22.890Z,70.84
2023-03-12T18:43:53.966Z,71.24
2023-03-12T18:46:24.135Z,71.31
2023-03-12T18:48:53.666Z,71.64
2023-03-12T18:51:22.557Z,71.82
2023-03-12T18:53:51.044Z,72.23
2023-03-12T18:56:23.004Z,72.47
2023-03-12T18:58:52.306Z,72.51
2023-03-12T19:01:21.609Z,72.42
2023-03-12T19:03:50.514Z,72.11
2023-03-12T19:06:19.291Z,71.80
2023-03-12T19:08:47.816Z,71.58
2023-03-12T19:11:17.278Z,71.47
2023-03-12T19:13:49.671Z,71.01
2023-03-12T19:16:22.170Z,70.87
2023-03-12T19:18:51.230Z,70.43
2023-03-12T19:21:19.615Z,70.11
2023-03-12T19:23:48.090Z,69.72
2023-03-12T19:26:16.980Z,69.62
2023-03-12T19:28:45.359Z,68.92
2023-03-12T19:31:15.516Z,68.57
2023-03-12T19:33:45.102Z,68.33
2023-03-12T19:36:13.883Z,68.26
2023-03-12T19:38:42.564Z,68.36
2023-03-12T19:41:13.919Z,68.36
2023-03-12T19:43:42.398Z,68.09
2023-03-12T19:46:13.177Z,67.83
2023-03-12T19:48:42.641Z,67.29
2023-03-12T19:51:11.546Z,67.21
2023-03-12T19:53:40.528Z,67.35
2023-03-12T19:56:09.213Z,66.81
2023-03-12T19:58:38.311Z,66.91
2023-03-12T20:01:06.897Z,66.74
2023-03-12T20:04:45.679Z,66.50
2023-03-12T20:07:14.312Z,65.97
2023-03-12T20:09:42.694Z,66.00
2023-03-12T20:12:11.182Z,65.92
2023-03-12T20:14:42.528Z,65.78
2023-03-12T20:17:13.474Z,65.89
2023-03-12T20:19:42.971Z,65.84
2023-03-12T20:22:11.575Z,66.22
2023-03-12T20:24:40.345Z,66.84
2023-03-12T20:27:08.930Z,69.22
2023-03-12T20:29:37.317Z,71.20
2023-03-12T20:32:06.697Z,72.18
2023-03-12T20:34:35.332Z,72.23
2023-03-12T20:37:07.263Z,72.08
2023-03-12T20:39:36.257Z,72.31
2023-03-12T20:42:04.741Z,71.54
2023-03-12T20:44:33.533Z,71.10
2023-03-12T20:47:02.032Z,71.44
2023-03-12T20:49:30.605Z,71.19
2023-03-12T20:52:00.317Z,70.57
2023-03-12T20:54:28.699Z,70.58
2023-03-12T20:56:57.185Z,70.36
2023-03-12T20:59:25.772Z,70.26
2023-03-12T21:01:54.146Z,69.91
2023-03-12T21:04:22.835Z,70.24
2023-03-12T21:06:51.930Z,69.89
2023-03-12T21:09:21.955Z,68.17
2023-03-12T21:11:50.640Z,67.41
2023-03-12T21:14:20.152Z,66.63
2023-03-12T21:16:49.693Z,66.68
2023-03-12T21:19:19.265Z,67.22
2023-03-12T21:21:47.960Z,67.51
2023-03-12T21:24:16.437Z,67.75
2023-03-12T21:26:47.286Z,67.49
2023-03-12T21:29:15.862Z,67.06
2023-03-12T21:31:44.344Z,66.16
2023-03-12T21:34:12.758Z,65.83
2023-03-12T21:36:41.108Z,66.08
2023-03-12T21:39:09.601Z,65.92
2023-03-12T21:41:39.404Z,65.35
2023-03-12T21:44:10.858Z,65.42
2023-03-12T21:46:39.367Z,65.57
2023-03-12T21:49:08.052Z,65.24
2023-03-12T21:51:39.519Z,65.24
2023-03-12T21:54:08.168Z,65.09
2023-03-12T21:56:36.548Z,65.02
2023-03-12T21:59:05.029Z,65.06
2023-03-12T22:01:33.769Z,65.25
2023-03-12T22:04:03.552Z,65.26
2023-03-12T22:06:32.427Z,65.29
2023-03-12T22:09:00.909Z,65.42
2023-03-12T22:11:30.011Z,65.36
2023-03-12T22:13:58.389Z,65.61
2023-03-12T22:16:27.684Z,65.38
2023-03-12T22:18:56.898Z,65.51
2023-03-12T22:21:25.272Z,65.54
2023-03-12T22:23:54.372Z,65.62
2023-03-12T22:26:24.604Z,65.85
2023-03-12T22:28:57.681Z,66.13
2023-03-12T22:31:27.510Z,66.02
2023-03-12T22:33:56.693Z,66.02
2023-03-12T22:36:25.191Z,66.08
2023-03-12T22:38:54.072Z,65.71
2023-03-12T22:41:25.853Z,65.78
2023-03-12T22:43:56.169Z,65.76
2023-03-12T22:46:28.875Z,66.15
2023-03-12T22:48:59.111Z,66.27
2023-03-12T22:51:27.973Z,66.07
2023-03-12T22:53:57.274Z,66.10
2023-03-12T22:56:26.078Z,66.05
2023-03-12T22:58:55.776Z,65.90
2023-03-12T23:01:24.468Z,65.77
2023-03-12T23:03:57.233Z,65.94
2023-03-12T23:06:26.949Z,66.13
2023-03-12T23:08:55.429Z,65.89
2023-03-12T23:11:28.419Z,65.85
2023-03-12T23:13:58.132Z,66.06
2023-03-12T23:16:26.967Z,66.33
2023-03-12T23:18:56.849Z,66.51
2023-03-12T23:21:26.055Z,66.39
2023-03-12T23:24:02.819Z,66.72
2023-03-12T23:26:34.168Z,66.82
2023-03-12T23:29:02.548Z,66.91
2023-03-12T23:31:31.013Z,67.23
2023-03-12T23:33:59.720Z,66.98
2023-03-12T23:36:31.385Z,67.19
2023-03-12T23:39:00.685Z,66.93
2023-03-12T23:41:32.273Z,66.64
2023-03-12T23:44:02.208Z,66.73
2023-03-12T23:46:31.465Z,66.53
2023-03-12T23:49:00.218Z,65.97
2023-03-12T23:51:31.808Z,65.72
2023-03-12T23:54:05.534Z,65.66
2023-03-12T23:56:36.695Z,65.78
2023-03-12T23:59:05.784Z,65.71
